Time;durP1;ratioP1;P1;durP2;ratioP2;P2;SDS_P1;SDS_P2;PMS_P1;PMS_P2;Temp;Humidity;BMP_temperature;BMP_pressure;BME280_temperature;BME280_humidity;BME280_pressure;Samples;Min_cycle;Max_cycle;Signal;HPM_P1;HPM_P2
2023/05/20 00:01:08;;;;;;;10.98;3.50;;;;;;;0.99;58.00;97584.91;5033309;28;20061;-57
2023/05/20 00:08:03;;;;;;;11.07;3.47;;;;;;;1.01;58.79;97578.50;5027177;28;20144;-57
2023/05/20 00:14:48;;;;;;;12.43;3.40;;;;;;;0.89;59.20;97578.09;5032747;28;20047;-57
2023/05/20 00:22:52;;;;;;;7.13;3.17;;;;;;;0.90;57.94;97584.91;5053708;28;20075;-57
2023/05/20 00:38:00;;;;;;;9.55;3.03;;;;;;;0.72;59.46;97586.94;5053919;28;20048;-57
2023/05/20 00:44:45;;;;;;;8.75;3.30;;;;;;;0.72;59.22;97581.72;5047813;28;20421;-57
2023/05/20 01:04:26;;;;;;;8.65;3.38;;;;;;;0.56;60.63;97578.19;4995503;28;20149;-57
2023/05/20 01:11:20;;;;;;;12.35;4.00;;;;;;;0.50;59.98;97565.00;4991987;28;20049;-57
2023/05/20 01:18:09;;;;;;;8.98;3.78;;;;;;;0.41;60.78;97572.03;4990639;28;20053;-57
2023/05/20 01:24:54;;;;;;;10.43;3.88;;;;;;;0.42;61.22;97565.00;4994627;28;20611;-57
2023/05/20 01:31:40;;;;;;;13.57;4.18;;;;;;;0.29;60.20;97561.16;4990585;28;20108;-57
2023/05/20 01:38:25;;;;;;;14.15;3.72;;;;;;;0.22;61.50;97559.34;4992959;28;20461;-59
2023/05/20 01:45:11;;;;;;;13.10;4.60;;;;;;;0.06;62.09;97553.19;4990716;28;20046;-57
2023/05/20 01:56:14;;;;;;;12.95;4.30;;;;;;;0.16;61.34;97550.41;5011013;28;20041;-57
2023/05/20 02:07:29;;;;;;;11.32;4.45;;;;;;;-0.10;62.60;97543.59;4994122;28;20043;-57
2023/05/20 02:15:08;;;;;;;12.20;4.47;;;;;;;-0.07;62.94;97550.28;5033788;28;20036;-57
2023/05/20 02:21:53;;;;;;;11.18;4.75;;;;;;;-0.08;63.51;97546.84;5033783;28;20045;-57
2023/05/20 02:28:42;;;;;;;13.90;4.70;;;;;;;-0.29;64.37;97544.75;5033657;28;20408;-57
2023/05/20 02:35:27;;;;;;;11.13;4.78;;;;;;;-0.42;64.59;97550.47;5028529;28;20048;-57
2023/05/20 02:42:12;;;;;;;16.63;5.30;;;;;;;-0.48;65.15;97537.25;5032988;28;20047;-57
2023/05/20 02:48:57;;;;;;;16.23;4.70;;;;;;;-0.59;65.52;97539.19;5032953;28;20048;-57
2023/05/20 03:04:20;;;;;;;12.27;5.13;;;;;;;-0.67;65.75;97517.56;5048467;28;20516;-56
2023/05/20 03:11:05;;;;;;;16.30;4.93;;;;;;;-0.76;66.32;97516.75;5048064;28;20040;-57
2023/05/20 03:17:50;;;;;;;13.50;5.32;;;;;;;-0.79;66.50;97506.63;5052579;28;20044;-57
2023/05/20 03:24:35;;;;;;;15.70;5.20;;;;;;;-0.86;66.73;97516.88;5047585;28;20145;-58
2023/05/20 03:31:20;;;;;;;12.40;5.72;;;;;;;-0.94;67.71;97519.47;5049532;28;20124;-57
2023/05/20 03:38:05;;;;;;;11.43;5.55;;;;;;;-1.07;68.56;97514.72;5052548;28;20044;-58
2023/05/20 03:44:53;;;;;;;26.17;6.10;;;;;;;-1.20;69.80;97512.59;5051497;28;20169;-57
2023/05/20 03:51:38;;;;;;;13.18;5.60;;;;;;;-1.19;69.18;97495.19;5056270;28;20497;-57
2023/05/20 04:02:56;;;;;;;16.83;5.90;;;;;;;-1.17;69.20;97503.63;5060682;28;20078;-58
2023/05/20 04:14:33;;;;;;;13.48;5.55;;;;;;;-1.16;69.01;97503.47;5072841;28;20083;-58
2023/05/20 04:21:18;;;;;;;16.33;5.53;;;;;;;-1.19;69.71;97498.59;5073194;28;20063;-58
2023/05/20 04:28:04;;;;;;;12.02;5.55;;;;;;;-1.08;69.60;97507.06;5049163;28;20107;-58
2023/05/20 04:42:47;;;;;;;14.88;5.57;;;;;;;-0.97;69.90;97504.97;5055260;28;20047;-57
2023/05/20 04:49:33;;;;;;;14.70;5.20;;;;;;;-0.83;68.39;97502.75;5027211;28;20048;-57
2023/05/20 04:56:18;;;;;;;12.30;5.38;;;;;;;-0.78;69.41;97492.66;5029635;28;20076;-57
2023/05/20 05:24:54;;;;;;;12.43;5.30;;;;;;;-0.40;68.17;97488.59;5011292;28;20071;-57
2023/05/20 05:31:39;;;;;;;13.23;6.00;;;;;;;-0.34;68.34;97483.72;5050199;28;20039;-58
2023/05/20 05:38:25;;;;;;;12.95;5.68;;;;;;;-0.22;68.84;97485.81;5054194;28;20152;-58
2023/05/20 05:45:10;;;;;;;14.77;5.68;;;;;;;-0.21;68.54;97484.81;5054029;28;20110;-58
2023/05/20 05:51:55;;;;;;;15.07;6.05;;;;;;;-0.05;69.33;97491.81;5054160;28;20154;-58
2023/05/20 05:58:42;;;;;;;15.50;6.22;;;;;;;0.09;68.02;97482.50;5049618;28;20548;-58
2023/05/20 06:05:29;;;;;;;16.20;6.00;;;;;;;0.07;69.07;97478.41;5052402;28;20544;-57
2023/05/20 06:17:14;;;;;;;24.98;6.50;;;;;;;0.35;68.48;97484.03;5048572;28;20163;-57
2023/05/20 06:24:00;;;;;;;19.10;6.00;;;;;;;0.49;67.36;97490.34;5052846;28;20043;-57
2023/05/20 06:30:45;;;;;;;13.52;6.00;;;;;;;0.79;66.90;97490.53;5049502;28;20120;-57
2023/05/20 06:37:30;;;;;;;16.40;5.88;;;;;;;1.11;65.40;97492.13;5047758;28;20043;-57
2023/05/20 06:44:16;;;;;;;15.32;5.82;;;;;;;1.34;65.19;97476.47;5052220;28;20036;-57
2023/05/20 07:17:04;;;;;;;14.25;5.70;;;;;;;1.85;64.24;97468.84;5033154;28;20514;-57
2023/05/20 07:23:49;;;;;;;11.93;5.25;;;;;;;1.90;64.28;97469.13;5028740;28;20067;-57
2023/05/20 07:35:07;;;;;;;13.65;5.03;;;;;;;2.27;63.20;97470.06;5023971;28;20044;-57
2023/05/20 07:41:52;;;;;;;15.25;5.55;;;;;;;2.35;63.24;97452.63;5030981;28;20487;-57
2023/05/20 07:48:38;;;;;;;12.38;5.43;;;;;;;2.40;62.12;97464.19;5031893;28;20048;-57
2023/05/20 07:55:23;;;;;;;13.52;5.60;;;;;;;2.49;62.22;97462.25;5027202;28;20040;-57
2023/05/20 08:02:09;;;;;;;13.50;5.45;;;;;;;2.48;61.42;97460.66;5012807;28;20049;-57
2023/05/20 08:08:55;;;;;;;18.58;5.45;;;;;;;2.54;62.49;97464.34;5007527;28;20044;-57
2023/05/20 08:25:01;;;;;;;13.48;5.95;;;;;;;2.68;61.58;97458.28;5010759;28;20584;-57
2023/05/20 08:31:48;;;;;;;15.50;6.03;;;;;;;2.79;62.35;97470.06;5013268;28;20411;-58
2023/05/20 08:38:35;;;;;;;13.68;6.95;;;;;;;2.94;61.87;97464.78;5015189;28;20081;-57
2023/05/20 08:45:25;;;;;;;15.45;5.82;;;;;;;2.99;61.72;97458.00;5019570;28;20442;-58
2023/05/20 08:52:12;;;;;;;12.07;5.57;;;;;;;3.66;61.09;97471.72;5031152;28;20188;-57
2023/05/20 08:58:58;;;;;;;12.68;5.65;;;;;;;3.79;59.05;97461.31;5032684;28;20037;-57
2023/05/20 09:13:26;;;;;;;17.25;6.00;;;;;;;4.50;59.18;97470.03;5014700;28;20053;-57
2023/05/20 09:20:12;;;;;;;16.15;6.30;;;;;;;4.15;59.49;97470.84;5010297;28;20506;-58
2023/05/20 09:26:58;;;;;;;15.77;5.70;;;;;;;4.20;59.25;97465.00;5010875;28;20065;-58
2023/05/20 09:34:27;;;;;;;13.45;6.22;;;;;;;4.33;58.79;97464.25;5011884;28;20036;-59
2023/05/20 09:41:14;;;;;;;15.43;5.72;;;;;;;4.79;57.36;97472.34;5012179;28;20145;-59
2023/05/20 09:48:01;;;;;;;11.48;5.28;;;;;;;4.79;56.95;97469.72;5028841;28;20065;-59
2023/05/20 10:03:11;;;;;;;11.63;5.18;;;;;;;4.69;57.89;97468.47;5027677;28;20040;-58
2023/05/20 10:10:23;;;;;;;11.95;5.55;;;;;;;4.93;57.01;97467.13;5033577;28;20052;-58
2023/05/20 10:25:50;;;;;;;11.10;5.10;;;;;;;5.90;55.05;97457.13;5047008;28;20446;-58
2023/05/20 10:32:38;;;;;;;12.27;5.25;;;;;;;6.44;53.86;97468.38;5050079;28;20051;-58
2023/05/20 10:43:38;;;;;;;13.43;6.53;;;;;;;5.89;54.44;97472.09;5030264;28;20155;-57
2023/05/20 10:54:27;;;;;;;12.25;5.97;;;;;;;4.91;57.58;97459.47;5024806;28;20049;-58
2023/05/20 11:39:38;;;;;;;14.02;7.22;;;;;;;4.97;58.67;97445.53;5030213;28;20052;-58
2023/05/20 11:54:51;;;;;;;16.38;7.47;;;;;;;6.04;55.19;97439.50;5032226;28;20068;-58
2023/05/20 12:01:41;;;;;;;11.98;6.53;;;;;;;6.99;54.16;97423.97;5025435;28;20065;-58
2023/05/20 12:08:26;;;;;;;14.95;7.78;;;;;;;6.74;53.24;97408.09;5031422;28;20127;-57
2023/05/20 12:15:11;;;;;;;13.40;7.75;;;;;;;6.43;55.23;97407.00;5032060;28;20143;-57
2023/05/20 12:21:56;;;;;;;16.55;8.50;;;;;;;6.70;54.40;97397.16;5036216;28;20095;-57
2023/05/20 12:28:40;;;;;;;19.35;7.30;;;;;;;6.83;54.22;97404.19;5036090;28;20049;-57
2023/05/20 12:39:45;;;;;;;14.13;7.13;;;;;;;7.20;53.44;97393.00;5035675;28;20127;-58
2023/05/20 12:46:31;;;;;;;14.93;7.20;;;;;;;7.13;55.32;97392.25;5032136;28;20064;-58
2023/05/20 12:53:16;;;;;;;14.20;7.45;;;;;;;7.41;53.04;97397.91;5030730;28;20087;-58
2023/05/20 13:09:22;;;;;;;17.45;7.40;;;;;;;7.01;54.70;97376.31;5033042;28;20076;-58
2023/05/20 13:24:43;;;;;;;14.70;7.20;;;;;;;7.63;51.78;97355.34;5029259;28;20041;-58
2023/05/20 13:36:24;;;;;;;12.32;6.68;;;;;;;7.85;51.61;97358.34;5033336;28;20103;-56
2023/05/20 13:43:09;;;;;;;12.05;6.38;;;;;;;7.58;51.82;97344.63;5023198;28;20072;-56
2023/05/20 13:54:47;;;;;;;15.02;7.10;;;;;;;7.73;50.63;97354.81;5029667;28;20041;-58
2023/05/20 14:01:32;;;;;;;14.70;6.60;;;;;;;8.06;51.21;97365.06;5043311;28;20175;-58
2023/05/20 14:08:18;;;;;;;12.55;6.68;;;;;;;8.67;48.82;97346.66;5025664;28;20052;-57
2023/05/20 14:15:03;;;;;;;17.17;6.80;;;;;;;7.89;51.02;97341.06;5029766;28;20063;-57
2023/05/20 14:21:49;;;;;;;13.95;6.57;;;;;;;9.91;46.94;97338.72;5034071;28;20048;-57
2023/05/20 14:28:34;;;;;;;18.02;8.90;;;;;;;8.21;49.28;97317.16;5028623;28;20394;-57
2023/05/20 14:35:19;;;;;;;18.05;6.70;;;;;;;7.83;51.15;97326.91;5028366;28;20510;-58
2023/05/20 14:46:25;;;;;;;13.38;6.60;;;;;;;7.44;52.08;97307.84;5028552;28;20105;-60
2023/05/20 14:57:29;;;;;;;14.55;7.55;;;;;;;7.20;51.52;97295.47;5010725;28;20526;-59
2023/05/20 15:04:13;;;;;;;18.73;6.50;;;;;;;7.48;51.62;97297.66;5023802;28;20040;-58
2023/05/20 15:10:58;;;;;;;14.70;6.82;;;;;;;7.08;52.00;97296.19;5024688;28;20044;-58
2023/05/20 15:17:43;;;;;;;12.32;6.82;;;;;;;6.67;52.12;97286.94;5030053;28;20129;-56
2023/05/20 15:24:28;;;;;;;12.85;6.45;;;;;;;7.06;51.12;97290.31;5032757;28;20048;-56
2023/05/20 15:31:13;;;;;;;13.43;6.82;;;;;;;6.28;52.73;97283.56;5029001;28;20502;-57
2023/05/20 15:37:58;;;;;;;13.30;6.70;;;;;;;6.96;51.46;97289.97;5032606;28;20083;-57
2023/05/20 15:49:02;;;;;;;11.50;5.90;;;;;;;6.15;54.25;97297.59;5032887;28;20083;-57
2023/05/20 15:55:47;;;;;;;15.55;6.35;;;;;;;6.09;54.54;97284.44;5026885;28;20103;-57
2023/05/20 16:02:32;;;;;;;13.30;5.68;;;;;;;6.09;54.82;97279.19;5041984;28;20391;-57
2023/05/20 16:18:05;;;;;;;16.95;6.40;;;;;;;5.61;58.57;97267.19;5024740;28;20072;-57
2023/05/20 16:24:50;;;;;;;12.43;6.35;;;;;;;5.48;58.68;97269.88;5031612;28;20171;-58
2023/05/20 16:31:35;;;;;;;12.77;6.68;;;;;;;5.29;58.78;97279.41;5023345;28;20044;-57
2023/05/20 16:38:20;;;;;;;11.85;6.53;;;;;;;5.11;58.77;97269.50;5023972;28;20064;-57
2023/05/20 16:49:24;;;;;;;13.93;6.07;;;;;;;4.97;59.01;97271.38;5030024;28;20578;-56
2023/05/20 16:56:09;;;;;;;13.35;6.82;;;;;;;5.10;59.25;97271.34;5033448;28;20122;-56
2023/05/20 17:02:55;;;;;;;14.57;7.10;;;;;;;4.98;58.96;97288.72;5020683;28;20041;-55
2023/05/20 17:09:40;;;;;;;12.57;6.90;;;;;;;5.04;59.35;97292.34;5011038;28;20494;-55
2023/05/20 17:16:25;;;;;;;13.05;7.28;;;;;;;4.97;60.42;97290.56;5035060;28;20056;-56
2023/05/20 17:31:27;;;;;;;13.88;7.13;;;;;;;4.68;61.33;97298.81;5032493;28;20087;-57
2023/05/20 17:38:12;;;;;;;13.85;7.20;;;;;;;4.62;61.04;97295.19;5022901;28;20083;-57
2023/05/20 17:49:18;;;;;;;11.98;6.60;;;;;;;4.41;61.80;97283.03;5028269;28;20167;-57
2023/05/20 17:56:04;;;;;;;13.27;6.90;;;;;;;4.32;61.62;97289.47;5022205;28;20095;-58
2023/05/20 18:11:27;;;;;;;13.05;6.90;;;;;;;4.22;61.65;97287.19;5027230;28;20075;-58
2023/05/20 18:18:12;;;;;;;14.38;6.82;;;;;;;4.09;62.68;97292.41;5026618;28;20091;-58
2023/05/20 18:24:57;;;;;;;11.77;6.30;;;;;;;4.06;62.82;97285.75;5033127;28;20049;-58
2023/05/20 18:31:42;;;;;;;16.95;7.78;;;;;;;3.95;63.41;97281.88;5032615;28;20036;-58
2023/05/20 18:38:31;;;;;;;14.07;7.20;;;;;;;4.00;63.35;97291.78;5027031;28;20095;-57
2023/05/20 19:01:44;;;;;;;13.52;7.45;;;;;;;3.89;64.43;97290.53;5026329;28;20115;-57
2023/05/20 19:08:31;;;;;;;19.55;8.15;;;;;;;3.77;65.27;97285.03;5032118;28;20060;-57
2023/05/20 19:15:17;;;;;;;16.23;8.07;;;;;;;3.63;66.56;97281.53;5018304;28;20043;-58
2023/05/20 19:26:22;;;;;;;15.95;8.65;;;;;;;3.39;67.22;97284.63;5030440;28;20510;-57
2023/05/20 19:33:07;;;;;;;21.45;8.52;;;;;;;3.30;68.19;97280.56;5025582;28;20040;-56
2023/05/20 19:39:51;;;;;;;20.85;11.00;;;;;;;3.11;68.77;97293.34;5031023;28;20171;-57
2023/05/20 19:50:56;;;;;;;20.17;9.63;;;;;;;3.03;70.07;97296.88;5028820;28;20045;-57
2023/05/20 19:57:42;;;;;;;18.20;9.77;;;;;;;2.79;70.91;97292.06;5027611;28;20053;-57
2023/05/20 20:02:13;;;;;;;20.60;10.57;;;;;;;2.79;71.44;97295.47;5057611;28;20090;-58
2023/05/20 20:08:59;;;;;;;20.25;10.20;;;;;;;2.66;72.66;97280.47;5044570;28;20166;-55
2023/05/20 20:20:06;;;;;;;20.55;10.68;;;;;;;2.49;73.38;97287.78;5050258;28;20047;-56
2023/05/20 20:30:50;;;;;;;22.85;11.25;;;;;;;2.47;73.89;97278.47;5050605;28;20103;-57
2023/05/20 20:41:37;;;;;;;22.88;12.40;;;;;;;2.39;74.55;97257.69;5029470;28;20095;-56
2023/05/20 20:52:41;;;;;;;24.25;12.50;;;;;;;2.23;75.85;97270.00;5031462;28;20532;-55
2023/05/20 20:59:27;;;;;;;24.15;12.88;;;;;;;2.16;76.34;97258.66;5035487;28;20048;-56
2023/05/20 21:06:13;;;;;;;26.17;13.02;;;;;;;2.13;76.87;97247.75;5034353;28;20049;-57
2023/05/20 21:26:16;;;;;;;27.15;14.27;;;;;;;1.86;78.59;97237.03;5015209;28;20506;-56
2023/05/20 21:33:40;;;;;;;33.58;15.23;;;;;;;1.85;78.46;97236.22;5015562;28;20152;-56
2023/05/20 21:40:25;;;;;;;26.85;14.85;;;;;;;1.82;79.08;97233.16;5009786;28;20052;-56
2023/05/20 21:51:28;;;;;;;32.35;16.40;;;;;;;1.67;80.22;97220.94;5011921;28;20191;-56
2023/05/20 21:58:13;;;;;;;34.75;15.55;;;;;;;1.63;81.82;97216.25;5009982;28;20081;-56
2023/05/20 22:04:59;;;;;;;32.42;16.10;;;;;;;1.54;81.14;97207.72;5054675;28;20044;-56
2023/05/20 22:11:45;;;;;;;37.70;16.83;;;;;;;1.51;81.99;97208.06;5054230;28;20035;-57
2023/05/20 22:18:31;;;;;;;36.13;17.00;;;;;;;1.54;82.23;97211.13;5048962;28;20051;-56
2023/05/20 22:25:16;;;;;;;35.22;17.50;;;;;;;1.53;82.36;97199.06;5054033;28;20052;-56
2023/05/20 22:32:02;;;;;;;31.48;16.50;;;;;;;1.46;82.38;97189.53;5054218;28;20056;-56
2023/05/20 22:38:47;;;;;;;40.28;16.98;;;;;;;1.34;83.50;97176.13;5049356;28;20046;-56
2023/05/20 22:45:32;;;;;;;42.05;17.63;;;;;;;1.36;83.26;97179.34;5049268;28;20419;-56
2023/05/20 22:56:36;;;;;;;36.92;18.17;;;;;;;1.39;84.43;97172.97;5048947;28;20086;-56
2023/05/20 23:03:21;;;;;;;35.60;16.80;;;;;;;1.50;83.95;97169.88;5013374;28;20057;-56
2023/05/20 23:14:35;;;;;;;36.22;17.92;;;;;;;1.54;84.09;97160.69;5015080;28;20045;-56
2023/05/20 23:29:21;;;;;;;35.80;16.15;;;;;;;1.61;83.50;97145.09;5022074;28;20044;-56
2023/05/20 23:48:27;;;;;;;25.92;13.65;;;;;;;1.76;83.33;97121.53;5035885;28;20578;-56
2023/05/20 23:59:30;;;;;;;23.80;13.02;;;;;;;1.72;83.05;97121.09;5045769;28;20052;-56
